sensor_id;sensor_type;location;lat;lon;timestamp;P1;durP1;ratioP1;P2;durP2;ratioP2
13222;SDS011;6676;45.192;5.722;2023-04-25T00:02:10;3.05;;;1.30;;
13222;SDS011;6676;45.192;5.722;2023-04-25T00:05:03;1.98;;;1.20;;
13222;SDS011;6676;45.192;5.722;2023-04-25T00:07:55;1.80;;;1.10;;
13222;SDS011;6676;45.192;5.722;2023-04-25T00:10:48;2.22;;;1.10;;
13222;SDS011;6676;45.192;5.722;2023-04-25T00:13:39;3.10;;;1.10;;
13222;SDS011;6676;45.192;5.722;2023-04-25T00:16:31;2.60;;;1.25;;
13222;SDS011;6676;45.192;5.722;2023-04-25T00:19:24;2.40;;;1.17;;
13222;SDS011;6676;45.192;5.722;2023-04-25T00:22:16;1.98;;;1.20;;
13222;SDS011;6676;45.192;5.722;2023-04-25T00:25:08;3.25;;;1.45;;
13222;SDS011;6676;45.192;5.722;2023-04-25T00:27:59;3.27;;;1.25;;
13222;SDS011;6676;45.192;5.722;2023-04-25T00:30:50;2.75;;;1.30;;
13222;SDS011;6676;45.192;5.722;2023-04-25T00:33:41;1.90;;;1.10;;
13222;SDS011;6676;45.192;5.722;2023-04-25T00:36:33;1.72;;;1.25;;
13222;SDS011;6676;45.192;5.722;2023-04-25T00:39:24;2.27;;;1.17;;
13222;SDS011;6676;45.192;5.722;2023-04-25T00:42:15;4.03;;;1.20;;
13222;SDS011;6676;45.192;5.722;2023-04-25T00:44:56;3.83;;;1.35;;
13222;SDS011;6676;45.192;5.722;2023-04-25T00:47:50;1.77;;;1.12;;
13222;SDS011;6676;45.192;5.722;2023-04-25T00:50:42;2.75;;;1.10;;
13222;SDS011;6676;45.192;5.722;2023-04-25T00:53:36;2.00;;;1.32;;
13222;SDS011;6676;45.192;5.722;2023-04-25T00:56:27;1.82;;;1.17;;
13222;SDS011;6676;45.192;5.722;2023-04-25T00:59:18;1.80;;;1.20;;
13222;SDS011;6676;45.192;5.722;2023-04-25T01:02:10;2.67;;;1.30;;
13222;SDS011;6676;45.192;5.722;2023-04-25T01:05:02;1.52;;;1.07;;
13222;SDS011;6676;45.192;5.722;2023-04-25T01:07:55;1.77;;;1.25;;
13222;SDS011;6676;45.192;5.722;2023-04-25T01:10:47;1.72;;;1.22;;
13222;SDS011;6676;45.192;5.722;2023-04-25T01:13:27;4.15;;;1.27;;
13222;SDS011;6676;45.192;5.722;2023-04-25T01:16:20;2.67;;;1.30;;
13222;SDS011;6676;45.192;5.722;2023-04-25T01:21:53;1.47;;;1.10;;
13222;SDS011;6676;45.192;5.722;2023-04-25T01:24:44;3.40;;;1.32;;
13222;SDS011;6676;45.192;5.722;2023-04-25T01:27:36;4.58;;;1.30;;
13222;SDS011;6676;45.192;5.722;2023-04-25T01:30:29;1.92;;;1.15;;
13222;SDS011;6676;45.192;5.722;2023-04-25T01:33:21;2.33;;;1.02;;
13222;SDS011;6676;45.192;5.722;2023-04-25T01:36:13;2.22;;;1.20;;
13222;SDS011;6676;45.192;5.722;2023-04-25T01:39:06;2.20;;;1.17;;
13222;SDS011;6676;45.192;5.722;2023-04-25T01:41:58;3.35;;;1.35;;
13222;SDS011;6676;45.192;5.722;2023-04-25T01:44:51;2.37;;;1.02;;
13222;SDS011;6676;45.192;5.722;2023-04-25T01:47:43;2.75;;;1.25;;
13222;SDS011;6676;45.192;5.722;2023-04-25T01:50:36;2.47;;;1.37;;
13222;SDS011;6676;45.192;5.722;2023-04-25T01:53:28;2.20;;;1.05;;
13222;SDS011;6676;45.192;5.722;2023-04-25T01:56:22;1.98;;;0.90;;
13222;SDS011;6676;45.192;5.722;2023-04-25T01:59:14;2.90;;;1.00;;
13222;SDS011;6676;45.192;5.722;2023-04-25T02:02:16;2.65;;;1.05;;
13222;SDS011;6676;45.192;5.722;2023-04-25T02:05:08;1.25;;;0.70;;
13222;SDS011;6676;45.192;5.722;2023-04-25T02:08:01;1.92;;;1.10;;
13222;SDS011;6676;45.192;5.722;2023-04-25T02:10:54;2.62;;;1.30;;
13222;SDS011;6676;45.192;5.722;2023-04-25T02:13:47;5.20;;;1.32;;
13222;SDS011;6676;45.192;5.722;2023-04-25T02:16:46;2.52;;;1.22;;
13222;SDS011;6676;45.192;5.722;2023-04-25T02:19:39;2.75;;;1.12;;
13222;SDS011;6676;45.192;5.722;2023-04-25T02:22:31;3.87;;;1.25;;
13222;SDS011;6676;45.192;5.722;2023-04-25T02:25:25;4.37;;;1.37;;
13222;SDS011;6676;45.192;5.722;2023-04-25T02:28:17;2.25;;;1.22;;
13222;SDS011;6676;45.192;5.722;2023-04-25T02:30:58;3.92;;;1.20;;
13222;SDS011;6676;45.192;5.722;2023-04-25T02:33:51;2.77;;;1.32;;
13222;SDS011;6676;45.192;5.722;2023-04-25T02:36:43;3.08;;;1.27;;
13222;SDS011;6676;45.192;5.722;2023-04-25T02:39:36;3.30;;;1.17;;
13222;SDS011;6676;45.192;5.722;2023-04-25T02:42:27;3.12;;;1.12;;
13222;SDS011;6676;45.192;5.722;2023-04-25T02:45:19;2.30;;;1.10;;
13222;SDS011;6676;45.192;5.722;2023-04-25T02:48:10;3.52;;;1.30;;
13222;SDS011;6676;45.192;5.722;2023-04-25T02:51:02;3.17;;;1.12;;
13222;SDS011;6676;45.192;5.722;2023-04-25T02:53:53;3.60;;;1.10;;
13222;SDS011;6676;45.192;5.722;2023-04-25T02:56:45;1.30;;;1.07;;
13222;SDS011;6676;45.192;5.722;2023-04-25T02:59:38;2.22;;;1.45;;
13222;SDS011;6676;45.192;5.722;2023-04-25T03:02:29;1.77;;;1.10;;
13222;SDS011;6676;45.192;5.722;2023-04-25T03:05:21;3.35;;;1.07;;
13222;SDS011;6676;45.192;5.722;2023-04-25T03:08:12;1.72;;;1.10;;
13222;SDS011;6676;45.192;5.722;2023-04-25T03:11:04;3.83;;;1.20;;
13222;SDS011;6676;45.192;5.722;2023-04-25T03:16:57;4.58;;;1.40;;
13222;SDS011;6676;45.192;5.722;2023-04-25T03:19:49;8.18;;;1.87;;
13222;SDS011;6676;45.192;5.722;2023-04-25T03:22:40;2.25;;;1.32;;
13222;SDS011;6676;45.192;5.722;2023-04-25T03:25:31;3.55;;;1.17;;
13222;SDS011;6676;45.192;5.722;2023-04-25T03:28:24;2.83;;;1.35;;
13222;SDS011;6676;45.192;5.722;2023-04-25T03:31:16;3.65;;;1.25;;
13222;SDS011;6676;45.192;5.722;2023-04-25T03:34:07;2.20;;;1.20;;
13222;SDS011;6676;45.192;5.722;2023-04-25T03:36:59;2.85;;;1.20;;
13222;SDS011;6676;45.192;5.722;2023-04-25T03:39:52;2.60;;;1.30;;
13222;SDS011;6676;45.192;5.722;2023-04-25T03:42:47;3.12;;;1.40;;
13222;SDS011;6676;45.192;5.722;2023-04-25T03:45:38;3.65;;;1.57;;
13222;SDS011;6676;45.192;5.722;2023-04-25T03:48:30;5.50;;;1.98;;
13222;SDS011;6676;45.192;5.722;2023-04-25T03:51:21;3.17;;;1.80;;
13222;SDS011;6676;45.192;5.722;2023-04-25T03:54:13;5.42;;;2.02;;
13222;SDS011;6676;45.192;5.722;2023-04-25T03:57:06;3.02;;;1.70;;
13222;SDS011;6676;45.192;5.722;2023-04-25T03:59:59;5.58;;;2.02;;
13222;SDS011;6676;45.192;5.722;2023-04-25T04:02:53;2.37;;;1.40;;
13222;SDS011;6676;45.192;5.722;2023-04-25T04:05:46;2.12;;;1.45;;
13222;SDS011;6676;45.192;5.722;2023-04-25T04:08:37;2.30;;;1.17;;
13222;SDS011;6676;45.192;5.722;2023-04-25T04:11:30;2.17;;;1.20;;
13222;SDS011;6676;45.192;5.722;2023-04-25T04:14:22;3.22;;;1.50;;
13222;SDS011;6676;45.192;5.722;2023-04-25T04:17:14;1.57;;;0.90;;
13222;SDS011;6676;45.192;5.722;2023-04-25T04:20:07;2.27;;;1.50;;
13222;SDS011;6676;45.192;5.722;2023-04-25T04:23:01;2.40;;;1.30;;
13222;SDS011;6676;45.192;5.722;2023-04-25T04:25:52;4.85;;;1.57;;
13222;SDS011;6676;45.192;5.722;2023-04-25T04:28:49;3.42;;;1.90;;
13222;SDS011;6676;45.192;5.722;2023-04-25T04:31:48;5.12;;;1.75;;
13222;SDS011;6676;45.192;5.722;2023-04-25T04:34:41;2.98;;;1.65;;
13222;SDS011;6676;45.192;5.722;2023-04-25T04:37:34;5.05;;;1.15;;
13222;SDS011;6676;45.192;5.722;2023-04-25T04:40:27;3.92;;;1.55;;
13222;SDS011;6676;45.192;5.722;2023-04-25T04:43:27;4.45;;;1.65;;
13222;SDS011;6676;45.192;5.722;2023-04-25T04:46:36;4.20;;;1.90;;
13222;SDS011;6676;45.192;5.722;2023-04-25T04:49:48;1.95;;;1.27;;
13222;SDS011;6676;45.192;5.722;2023-04-25T04:52:45;3.45;;;2.00;;
13222;SDS011;6676;45.192;5.722;2023-04-25T04:55:49;2.83;;;1.80;;
13222;SDS011;6676;45.192;5.722;2023-04-25T04:58:43;4.12;;;1.42;;
13222;SDS011;6676;45.192;5.722;2023-04-25T05:01:54;3.08;;;1.50;;
13222;SDS011;6676;45.192;5.722;2023-04-25T05:04:47;4.62;;;1.72;;
13222;SDS011;6676;45.192;5.722;2023-04-25T05:07:57;5.47;;;1.85;;
13222;SDS011;6676;45.192;5.722;2023-04-25T05:13:47;4.85;;;1.82;;
13222;SDS011;6676;45.192;5.722;2023-04-25T05:16:57;4.80;;;1.57;;
13222;SDS011;6676;45.192;5.722;2023-04-25T05:19:51;3.95;;;1.90;;
13222;SDS011;6676;45.192;5.722;2023-04-25T05:22:56;3.75;;;1.60;;
13222;SDS011;6676;45.192;5.722;2023-04-25T05:25:52;5.95;;;2.10;;
13222;SDS011;6676;45.192;5.722;2023-04-25T05:28:58;3.17;;;1.80;;
13222;SDS011;6676;45.192;5.722;2023-04-25T05:34:35;6.03;;;2.00;;
13222;SDS011;6676;45.192;5.722;2023-04-25T05:37:28;3.65;;;1.70;;
13222;SDS011;6676;45.192;5.722;2023-04-25T05:40:28;4.70;;;1.90;;
13222;SDS011;6676;45.192;5.722;2023-04-25T05:43:08;4.30;;;1.75;;
13222;SDS011;6676;45.192;5.722;2023-04-25T05:46:13;3.60;;;1.90;;
13222;SDS011;6676;45.192;5.722;2023-04-25T05:49:07;2.95;;;1.77;;
13222;SDS011;6676;45.192;5.722;2023-04-25T05:52:03;5.35;;;1.65;;
13222;SDS011;6676;45.192;5.722;2023-04-25T05:57:51;3.72;;;1.92;;
13222;SDS011;6676;45.192;5.722;2023-04-25T06:00:43;2.75;;;1.47;;
13222;SDS011;6676;45.192;5.722;2023-04-25T06:03:35;4.12;;;1.70;;
13222;SDS011;6676;45.192;5.722;2023-04-25T06:06:27;6.28;;;1.98;;
13222;SDS011;6676;45.192;5.722;2023-04-25T06:09:19;4.00;;;1.57;;
13222;SDS011;6676;45.192;5.722;2023-04-25T06:12:12;3.95;;;1.62;;
13222;SDS011;6676;45.192;5.722;2023-04-25T06:15:04;4.25;;;1.65;;
13222;SDS011;6676;45.192;5.722;2023-04-25T06:17:59;3.55;;;1.60;;
13222;SDS011;6676;45.192;5.722;2023-04-25T06:20:51;4.90;;;1.82;;
13222;SDS011;6676;45.192;5.722;2023-04-25T06:23:43;5.03;;;1.87;;
13222;SDS011;6676;45.192;5.722;2023-04-25T06:26:24;4.60;;;1.65;;
13222;SDS011;6676;45.192;5.722;2023-04-25T06:29:16;2.52;;;1.40;;
13222;SDS011;6676;45.192;5.722;2023-04-25T06:32:10;4.25;;;2.00;;
13222;SDS011;6676;45.192;5.722;2023-04-25T06:35:03;3.52;;;1.80;;
13222;SDS011;6676;45.192;5.722;2023-04-25T06:37:56;6.03;;;1.82;;
13222;SDS011;6676;45.192;5.722;2023-04-25T06:40:48;5.03;;;1.80;;
13222;SDS011;6676;45.192;5.722;2023-04-25T06:43:40;2.62;;;1.70;;
13222;SDS011;6676;45.192;5.722;2023-04-25T06:46:33;4.45;;;1.55;;
13222;SDS011;6676;45.192;5.722;2023-04-25T06:49:26;5.80;;;2.02;;
13222;SDS011;6676;45.192;5.722;2023-04-25T06:52:19;5.97;;;1.92;;
13222;SDS011;6676;45.192;5.722;2023-04-25T06:55:00;5.80;;;2.37;;
13222;SDS011;6676;45.192;5.722;2023-04-25T06:58:04;4.97;;;1.62;;
13222;SDS011;6676;45.192;5.722;2023-04-25T07:01:13;5.53;;;1.40;;
13222;SDS011;6676;45.192;5.722;2023-04-25T07:04:05;4.30;;;1.72;;
13222;SDS011;6676;45.192;5.722;2023-04-25T07:06:59;4.10;;;1.80;;
13222;SDS011;6676;45.192;5.722;2023-04-25T07:10:06;4.90;;;2.05;;
13222;SDS011;6676;45.192;5.722;2023-04-25T07:12:58;4.92;;;2.15;;
13222;SDS011;6676;45.192;5.722;2023-04-25T07:15:50;5.53;;;1.98;;
13222;SDS011;6676;45.192;5.722;2023-04-25T07:18:44;4.40;;;1.92;;
13222;SDS011;6676;45.192;5.722;2023-04-25T07:21:36;5.78;;;2.27;;
13222;SDS011;6676;45.192;5.722;2023-04-25T07:24:28;4.85;;;2.33;;
13222;SDS011;6676;45.192;5.722;2023-04-25T07:27:20;5.53;;;2.15;;
13222;SDS011;6676;45.192;5.722;2023-04-25T07:30:30;4.92;;;1.90;;
13222;SDS011;6676;45.192;5.722;2023-04-25T07:33:24;4.03;;;1.87;;
13222;SDS011;6676;45.192;5.722;2023-04-25T07:36:15;5.37;;;2.30;;
13222;SDS011;6676;45.192;5.722;2023-04-25T07:39:07;6.58;;;2.25;;
13222;SDS011;6676;45.192;5.722;2023-04-25T07:41:58;5.53;;;1.95;;
13222;SDS011;6676;45.192;5.722;2023-04-25T07:44:51;4.92;;;1.80;;
13222;SDS011;6676;45.192;5.722;2023-04-25T07:47:43;4.45;;;1.72;;
13222;SDS011;6676;45.192;5.722;2023-04-25T07:50:34;3.65;;;1.80;;
13222;SDS011;6676;45.192;5.722;2023-04-25T07:53:26;6.05;;;2.22;;
13222;SDS011;6676;45.192;5.722;2023-04-25T07:56:19;3.12;;;1.80;;
13222;SDS011;6676;45.192;5.722;2023-04-25T07:59:12;5.30;;;2.45;;
13222;SDS011;6676;45.192;5.722;2023-04-25T08:02:05;2.85;;;1.47;;
13222;SDS011;6676;45.192;5.722;2023-04-25T08:04:57;4.55;;;1.82;;
13222;SDS011;6676;45.192;5.722;2023-04-25T08:07:49;6.15;;;2.02;;
13222;SDS011;6676;45.192;5.722;2023-04-25T08:10:41;5.70;;;1.72;;
13222;SDS011;6676;45.192;5.722;2023-04-25T08:13:33;3.30;;;1.85;;
13222;SDS011;6676;45.192;5.722;2023-04-25T08:16:25;5.30;;;2.10;;
13222;SDS011;6676;45.192;5.722;2023-04-25T08:19:17;5.22;;;1.90;;
13222;SDS011;6676;45.192;5.722;2023-04-25T08:22:09;5.55;;;2.02;;
13222;SDS011;6676;45.192;5.722;2023-04-25T08:25:06;5.70;;;2.50;;
13222;SDS011;6676;45.192;5.722;2023-04-25T08:27:58;4.87;;;2.00;;
13222;SDS011;6676;45.192;5.722;2023-04-25T08:30:52;4.03;;;1.87;;
13222;SDS011;6676;45.192;5.722;2023-04-25T08:33:45;4.90;;;2.27;;
13222;SDS011;6676;45.192;5.722;2023-04-25T08:36:45;5.10;;;2.30;;
13222;SDS011;6676;45.192;5.722;2023-04-25T08:39:45;4.45;;;2.25;;
13222;SDS011;6676;45.192;5.722;2023-04-25T08:42:57;4.65;;;2.10;;
13222;SDS011;6676;45.192;5.722;2023-04-25T08:45:51;4.33;;;1.82;;
13222;SDS011;6676;45.192;5.722;2023-04-25T08:48:46;5.05;;;2.05;;
13222;SDS011;6676;45.192;5.722;2023-04-25T08:51:42;4.33;;;2.10;;
13222;SDS011;6676;45.192;5.722;2023-04-25T08:54:34;3.85;;;2.17;;
13222;SDS011;6676;45.192;5.722;2023-04-25T08:57:28;3.72;;;1.75;;
13222;SDS011;6676;45.192;5.722;2023-04-25T09:00:21;6.08;;;2.05;;
13222;SDS011;6676;45.192;5.722;2023-04-25T09:03:13;3.15;;;1.77;;
13222;SDS011;6676;45.192;5.722;2023-04-25T09:06:06;4.10;;;2.20;;
13222;SDS011;6676;45.192;5.722;2023-04-25T09:09:02;6.17;;;2.00;;
13222;SDS011;6676;45.192;5.722;2023-04-25T09:11:55;4.60;;;1.75;;
13222;SDS011;6676;45.192;5.722;2023-04-25T09:15:01;5.33;;;1.87;;
13222;SDS011;6676;45.192;5.722;2023-04-25T09:18:22;3.85;;;1.90;;
13222;SDS011;6676;45.192;5.722;2023-04-25T09:21:21;5.12;;;1.90;;
13222;SDS011;6676;45.192;5.722;2023-04-25T09:24:12;2.50;;;1.40;;
13222;SDS011;6676;45.192;5.722;2023-04-25T09:27:05;3.83;;;2.00;;
13222;SDS011;6676;45.192;5.722;2023-04-25T09:29:58;3.85;;;1.45;;
13222;SDS011;6676;45.192;5.722;2023-04-25T09:32:52;4.25;;;1.90;;
13222;SDS011;6676;45.192;5.722;2023-04-25T09:35:47;3.45;;;1.67;;
13222;SDS011;6676;45.192;5.722;2023-04-25T09:41:38;3.60;;;1.60;;
13222;SDS011;6676;45.192;5.722;2023-04-25T09:44:31;4.00;;;1.50;;
13222;SDS011;6676;45.192;5.722;2023-04-25T09:47:23;2.65;;;1.50;;
13222;SDS011;6676;45.192;5.722;2023-04-25T09:50:17;1.92;;;1.32;;
13222;SDS011;6676;45.192;5.722;2023-04-25T09:53:10;3.80;;;1.50;;
13222;SDS011;6676;45.192;5.722;2023-04-25T09:56:04;4.60;;;1.60;;
13222;SDS011;6676;45.192;5.722;2023-04-25T09:58:56;3.05;;;1.42;;
13222;SDS011;6676;45.192;5.722;2023-04-25T10:01:48;3.00;;;1.60;;
13222;SDS011;6676;45.192;5.722;2023-04-25T10:04:41;3.05;;;1.30;;
13222;SDS011;6676;45.192;5.722;2023-04-25T10:07:23;3.12;;;1.32;;
13222;SDS011;6676;45.192;5.722;2023-04-25T10:10:17;3.45;;;1.57;;
13222;SDS011;6676;45.192;5.722;2023-04-25T10:13:01;3.33;;;1.70;;
13222;SDS011;6676;45.192;5.722;2023-04-25T10:15:54;2.67;;;1.52;;
13222;SDS011;6676;45.192;5.722;2023-04-25T10:18:46;5.03;;;1.60;;
13222;SDS011;6676;45.192;5.722;2023-04-25T10:21:40;3.70;;;1.65;;
13222;SDS011;6676;45.192;5.722;2023-04-25T10:24:36;2.83;;;1.70;;
13222;SDS011;6676;45.192;5.722;2023-04-25T10:27:29;3.87;;;1.57;;
13222;SDS011;6676;45.192;5.722;2023-04-25T10:30:20;4.20;;;1.50;;
13222;SDS011;6676;45.192;5.722;2023-04-25T10:33:17;3.62;;;1.40;;
13222;SDS011;6676;45.192;5.722;2023-04-25T10:36:10;2.55;;;1.50;;
13222;SDS011;6676;45.192;5.722;2023-04-25T10:39:04;3.02;;;1.50;;
13222;SDS011;6676;45.192;5.722;2023-04-25T10:41:57;3.25;;;1.65;;
13222;SDS011;6676;45.192;5.722;2023-04-25T10:45:01;5.53;;;1.65;;
13222;SDS011;6676;45.192;5.722;2023-04-25T10:47:55;5.58;;;1.77;;
13222;SDS011;6676;45.192;5.722;2023-04-25T10:50:46;5.67;;;1.67;;
13222;SDS011;6676;45.192;5.722;2023-04-25T10:53:38;3.10;;;1.35;;
13222;SDS011;6676;45.192;5.722;2023-04-25T10:56:29;3.15;;;1.62;;
13222;SDS011;6676;45.192;5.722;2023-04-25T10:59:37;3.40;;;1.60;;
13222;SDS011;6676;45.192;5.722;2023-04-25T11:02:29;2.85;;;1.20;;
13222;SDS011;6676;45.192;5.722;2023-04-25T11:05:23;2.58;;;1.40;;
13222;SDS011;6676;45.192;5.722;2023-04-25T11:08:25;3.02;;;1.60;;
13222;SDS011;6676;45.192;5.722;2023-04-25T11:11:01;4.15;;;1.47;;
13222;SDS011;6676;45.192;5.722;2023-04-25T11:13:53;3.05;;;1.50;;
13222;SDS011;6676;45.192;5.722;2023-04-25T11:16:44;3.02;;;1.40;;
13222;SDS011;6676;45.192;5.722;2023-04-25T11:19:35;3.12;;;1.07;;
13222;SDS011;6676;45.192;5.722;2023-04-25T11:22:27;2.42;;;1.40;;
13222;SDS011;6676;45.192;5.722;2023-04-25T11:25:19;2.62;;;1.40;;
13222;SDS011;6676;45.192;5.722;2023-04-25T11:28:12;2.00;;;1.15;;
13222;SDS011;6676;45.192;5.722;2023-04-25T11:31:05;3.62;;;1.40;;
13222;SDS011;6676;45.192;5.722;2023-04-25T11:33:57;1.40;;;1.00;;
13222;SDS011;6676;45.192;5.722;2023-04-25T11:36:51;4.70;;;1.37;;
13222;SDS011;6676;45.192;5.722;2023-04-25T11:39:44;2.58;;;1.00;;
13222;SDS011;6676;45.192;5.722;2023-04-25T11:42:37;3.22;;;1.40;;
13222;SDS011;6676;45.192;5.722;2023-04-25T11:45:30;3.70;;;1.50;;
13222;SDS011;6676;45.192;5.722;2023-04-25T11:48:22;3.10;;;1.62;;
13222;SDS011;6676;45.192;5.722;2023-04-25T11:51:14;2.40;;;1.47;;
13222;SDS011;6676;45.192;5.722;2023-04-25T11:54:05;4.67;;;1.55;;
13222;SDS011;6676;45.192;5.722;2023-04-25T11:56:56;2.95;;;1.37;;
13222;SDS011;6676;45.192;5.722;2023-04-25T11:59:49;3.77;;;1.75;;
13222;SDS011;6676;45.192;5.722;2023-04-25T12:02:41;2.92;;;1.35;;
13222;SDS011;6676;45.192;5.722;2023-04-25T12:05:34;2.17;;;1.35;;
13222;SDS011;6676;45.192;5.722;2023-04-25T12:08:26;4.80;;;1.67;;
13222;SDS011;6676;45.192;5.722;2023-04-25T12:11:21;4.90;;;1.65;;
13222;SDS011;6676;45.192;5.722;2023-04-25T12:14:20;2.70;;;1.62;;
13222;SDS011;6676;45.192;5.722;2023-04-25T12:17:12;5.83;;;1.50;;
13222;SDS011;6676;45.192;5.722;2023-04-25T12:20:06;2.80;;;1.32;;
13222;SDS011;6676;45.192;5.722;2023-04-25T12:22:59;3.00;;;1.37;;
13222;SDS011;6676;45.192;5.722;2023-04-25T12:25:53;2.47;;;1.15;;
13222;SDS011;6676;45.192;5.722;2023-04-25T12:28:45;1.82;;;1.00;;
13222;SDS011;6676;45.192;5.722;2023-04-25T12:31:37;2.47;;;1.20;;
13222;SDS011;6676;45.192;5.722;2023-04-25T12:34:29;3.17;;;1.10;;
13222;SDS011;6676;45.192;5.722;2023-04-25T12:37:23;2.15;;;1.37;;
13222;SDS011;6676;45.192;5.722;2023-04-25T12:40:15;2.08;;;1.22;;
13222;SDS011;6676;45.192;5.722;2023-04-25T12:43:06;2.15;;;1.30;;
13222;SDS011;6676;45.192;5.722;2023-04-25T12:45:58;2.83;;;1.50;;
13222;SDS011;6676;45.192;5.722;2023-04-25T12:48:50;3.60;;;1.40;;
13222;SDS011;6676;45.192;5.722;2023-04-25T12:51:41;2.85;;;1.40;;
13222;SDS011;6676;45.192;5.722;2023-04-25T12:54:32;4.35;;;1.35;;
13222;SDS011;6676;45.192;5.722;2023-04-25T12:57:24;2.15;;;1.40;;
13222;SDS011;6676;45.192;5.722;2023-04-25T13:00:17;2.25;;;1.15;;
13222;SDS011;6676;45.192;5.722;2023-04-25T13:03:09;4.42;;;1.45;;
13222;SDS011;6676;45.192;5.722;2023-04-25T13:06:02;2.40;;;1.22;;
13222;SDS011;6676;45.192;5.722;2023-04-25T13:08:53;2.20;;;1.25;;
13222;SDS011;6676;45.192;5.722;2023-04-25T13:11:45;2.12;;;1.30;;
13222;SDS011;6676;45.192;5.722;2023-04-25T13:14:39;4.03;;;1.42;;
13222;SDS011;6676;45.192;5.722;2023-04-25T13:17:34;4.67;;;1.02;;
13222;SDS011;6676;45.192;5.722;2023-04-25T13:20:28;2.58;;;1.40;;
13222;SDS011;6676;45.192;5.722;2023-04-25T13:23:22;3.47;;;1.15;;
13222;SDS011;6676;45.192;5.722;2023-04-25T13:26:22;3.30;;;1.82;;
13222;SDS011;6676;45.192;5.722;2023-04-25T13:29:19;2.52;;;1.62;;
13222;SDS011;6676;45.192;5.722;2023-04-25T13:32:13;2.85;;;0.95;;
13222;SDS011;6676;45.192;5.722;2023-04-25T13:35:10;5.87;;;1.57;;
13222;SDS011;6676;45.192;5.722;2023-04-25T13:38:07;2.77;;;1.30;;
13222;SDS011;6676;45.192;5.722;2023-04-25T13:41:01;2.98;;;1.35;;
13222;SDS011;6676;45.192;5.722;2023-04-25T13:43:56;2.58;;;1.10;;
13222;SDS011;6676;45.192;5.722;2023-04-25T13:46:50;3.85;;;1.35;;
13222;SDS011;6676;45.192;5.722;2023-04-25T13:49:43;1.55;;;1.10;;
13222;SDS011;6676;45.192;5.722;2023-04-25T13:52:38;2.75;;;1.30;;
13222;SDS011;6676;45.192;5.722;2023-04-25T13:55:30;2.27;;;0.85;;
13222;SDS011;6676;45.192;5.722;2023-04-25T13:58:23;2.40;;;1.10;;
13222;SDS011;6676;45.192;5.722;2023-04-25T14:01:17;2.20;;;1.10;;
13222;SDS011;6676;45.192;5.722;2023-04-25T14:04:11;3.20;;;1.20;;
13222;SDS011;6676;45.192;5.722;2023-04-25T14:07:03;3.55;;;1.15;;
13222;SDS011;6676;45.192;5.722;2023-04-25T14:10:00;8.13;;;1.20;;
13222;SDS011;6676;45.192;5.722;2023-04-25T14:12:56;2.75;;;1.20;;
13222;SDS011;6676;45.192;5.722;2023-04-25T14:15:50;1.72;;;1.12;;
13222;SDS011;6676;45.192;5.722;2023-04-25T14:18:44;2.40;;;0.90;;
13222;SDS011;6676;45.192;5.722;2023-04-25T14:21:38;2.17;;;1.25;;
13222;SDS011;6676;45.192;5.722;2023-04-25T14:24:36;2.33;;;1.15;;
13222;SDS011;6676;45.192;5.722;2023-04-25T14:27:32;2.30;;;1.25;;
13222;SDS011;6676;45.192;5.722;2023-04-25T14:30:27;3.85;;;1.25;;
13222;SDS011;6676;45.192;5.722;2023-04-25T14:33:21;2.50;;;1.10;;
13222;SDS011;6676;45.192;5.722;2023-04-25T14:36:16;2.60;;;1.00;;
13222;SDS011;6676;45.192;5.722;2023-04-25T14:39:08;2.20;;;0.93;;
13222;SDS011;6676;45.192;5.722;2023-04-25T14:42:06;2.22;;;1.00;;
13222;SDS011;6676;45.192;5.722;2023-04-25T14:45:02;2.07;;;0.93;;
13222;SDS011;6676;45.192;5.722;2023-04-25T14:47:59;3.90;;;1.20;;
13222;SDS011;6676;45.192;5.722;2023-04-25T14:50:53;1.77;;;1.00;;
13222;SDS011;6676;45.192;5.722;2023-04-25T14:53:45;2.10;;;0.90;;
13222;SDS011;6676;45.192;5.722;2023-04-25T14:56:40;1.98;;;0.68;;
13222;SDS011;6676;45.192;5.722;2023-04-25T14:59:33;2.40;;;1.17;;
13222;SDS011;6676;45.192;5.722;2023-04-25T15:02:27;3.65;;;1.07;;
13222;SDS011;6676;45.192;5.722;2023-04-25T15:05:24;2.15;;;1.10;;
13222;SDS011;6676;45.192;5.722;2023-04-25T15:08:19;3.33;;;0.90;;
13222;SDS011;6676;45.192;5.722;2023-04-25T15:11:13;2.02;;;0.90;;
13222;SDS011;6676;45.192;5.722;2023-04-25T15:14:07;3.42;;;1.00;;
13222;SDS011;6676;45.192;5.722;2023-04-25T15:17:00;2.10;;;0.85;;
13222;SDS011;6676;45.192;5.722;2023-04-25T15:19:55;2.95;;;0.80;;
13222;SDS011;6676;45.192;5.722;2023-04-25T15:22:52;2.95;;;1.20;;
13222;SDS011;6676;45.192;5.722;2023-04-25T15:25:44;1.87;;;0.93;;
13222;SDS011;6676;45.192;5.722;2023-04-25T15:28:39;3.98;;;1.00;;
13222;SDS011;6676;45.192;5.722;2023-04-25T15:31:34;3.40;;;1.02;;
13222;SDS011;6676;45.192;5.722;2023-04-25T15:34:26;1.57;;;0.88;;
13222;SDS011;6676;45.192;5.722;2023-04-25T15:37:18;2.77;;;0.90;;
13222;SDS011;6676;45.192;5.722;2023-04-25T15:40:14;1.77;;;1.10;;
13222;SDS011;6676;45.192;5.722;2023-04-25T15:43:06;1.82;;;0.98;;
13222;SDS011;6676;45.192;5.722;2023-04-25T15:46:17;1.15;;;0.93;;
13222;SDS011;6676;45.192;5.722;2023-04-25T15:49:17;1.87;;;0.70;;
13222;SDS011;6676;45.192;5.722;2023-04-25T15:52:15;1.80;;;0.88;;
13222;SDS011;6676;45.192;5.722;2023-04-25T15:55:09;1.90;;;0.98;;
13222;SDS011;6676;45.192;5.722;2023-04-25T15:58:03;2.12;;;0.90;;
13222;SDS011;6676;45.192;5.722;2023-04-25T16:00:59;4.05;;;0.93;;
13222;SDS011;6676;45.192;5.722;2023-04-25T16:03:55;3.67;;;1.07;;
13222;SDS011;6676;45.192;5.722;2023-04-25T16:06:50;2.40;;;0.87;;
13222;SDS011;6676;45.192;5.722;2023-04-25T16:09:51;1.42;;;0.60;;
13222;SDS011;6676;45.192;5.722;2023-04-25T16:12:46;2.67;;;1.32;;
13222;SDS011;6676;45.192;5.722;2023-04-25T16:15:40;0.82;;;0.60;;
13222;SDS011;6676;45.192;5.722;2023-04-25T16:18:43;2.20;;;0.90;;
13222;SDS011;6676;45.192;5.722;2023-04-25T16:21:43;1.57;;;0.80;;
13222;SDS011;6676;45.192;5.722;2023-04-25T16:24:38;1.87;;;0.93;;
13222;SDS011;6676;45.192;5.722;2023-04-25T16:27:31;1.95;;;0.80;;
13222;SDS011;6676;45.192;5.722;2023-04-25T16:30:25;1.30;;;0.82;;
13222;SDS011;6676;45.192;5.722;2023-04-25T16:33:17;2.33;;;0.90;;
13222;SDS011;6676;45.192;5.722;2023-04-25T16:36:12;2.95;;;0.95;;
13222;SDS011;6676;45.192;5.722;2023-04-25T16:39:06;2.00;;;0.95;;
13222;SDS011;6676;45.192;5.722;2023-04-25T16:42:03;1.80;;;0.88;;
13222;SDS011;6676;45.192;5.722;2023-04-25T16:45:00;2.55;;;0.70;;
13222;SDS011;6676;45.192;5.722;2023-04-25T16:47:52;1.05;;;0.80;;
13222;SDS011;6676;45.192;5.722;2023-04-25T16:50:45;2.72;;;1.35;;
13222;SDS011;6676;45.192;5.722;2023-04-25T16:53:37;1.50;;;0.62;;
13222;SDS011;6676;45.192;5.722;2023-04-25T16:56:29;3.75;;;1.02;;
13222;SDS011;6676;45.192;5.722;2023-04-25T16:59:20;1.98;;;1.00;;
13222;SDS011;6676;45.192;5.722;2023-04-25T17:02:11;2.02;;;1.00;;
13222;SDS011;6676;45.192;5.722;2023-04-25T17:05:04;2.08;;;0.82;;
13222;SDS011;6676;45.192;5.722;2023-04-25T17:07:56;4.25;;;1.10;;
13222;SDS011;6676;45.192;5.722;2023-04-25T17:10:47;2.20;;;0.80;;
13222;SDS011;6676;45.192;5.722;2023-04-25T17:13:39;3.70;;;1.17;;
13222;SDS011;6676;45.192;5.722;2023-04-25T17:16:34;3.02;;;0.93;;
13222;SDS011;6676;45.192;5.722;2023-04-25T17:19:28;3.70;;;1.00;;
13222;SDS011;6676;45.192;5.722;2023-04-25T17:22:20;1.85;;;0.70;;
13222;SDS011;6676;45.192;5.722;2023-04-25T17:25:11;2.40;;;0.78;;
13222;SDS011;6676;45.192;5.722;2023-04-25T17:28:03;1.57;;;0.85;;
13222;SDS011;6676;45.192;5.722;2023-04-25T17:30:56;2.72;;;0.90;;
13222;SDS011;6676;45.192;5.722;2023-04-25T17:33:47;3.55;;;1.00;;
13222;SDS011;6676;45.192;5.722;2023-04-25T17:36:39;2.12;;;1.00;;
13222;SDS011;6676;45.192;5.722;2023-04-25T17:39:30;2.12;;;0.90;;
13222;SDS011;6676;45.192;5.722;2023-04-25T17:45:24;2.08;;;0.88;;
13222;SDS011;6676;45.192;5.722;2023-04-25T17:48:17;1.90;;;0.85;;
13222;SDS011;6676;45.192;5.722;2023-04-25T17:51:10;3.60;;;1.10;;
13222;SDS011;6676;45.192;5.722;2023-04-25T17:54:01;2.15;;;1.00;;
13222;SDS011;6676;45.192;5.722;2023-04-25T17:56:53;2.95;;;1.20;;
13222;SDS011;6676;45.192;5.722;2023-04-25T17:59:44;1.98;;;1.00;;
13222;SDS011;6676;45.192;5.722;2023-04-25T18:02:36;2.52;;;0.80;;